Delta, Kentucky
Current Conditions -  °F | °C
As of 12:56 PM on Sunday 21 Dec 2014 (Local Time) from KEKQ Reporting Station
Clear Clear  
Wind Chill:   Ceiling: Unl
Heat Index:   Visibility: 10mi
Dew Point: -2°   Wind: 7mph
Humidity: 52%   Direction: 120°ESE
Pressure: 30.21"   Gusts: NA
Location:  36.8129°N, 84.8215°W
Report Text: KEKQ 211756Z AUTO 12006KT 10SM CLR 07/M02 A3021 RMK AO2 58028 T00721022 10072 21083 SLP241
Loading
Personal Weather Stations






























Interactive Weather Map New forecast layout! Learn more

10-Day Weather Forecast

Advertisements
Track Severe Weather on mobile